Time;durP1;ratioP1;P1;durP2;ratioP2;P2;SDS_P1;SDS_P2;PMS_P1;PMS_P2;Temp;Humidity;BMP_temperature;BMP_pressure;BME280_temperature;BME280_humidity;BME280_pressure;Samples;Min_cycle;Max_cycle;Signal;HPM_P1;HPM_P2
2023/05/31 00:00:50;;;;;;;3.17;0.40;;;11.00;99.90;;;;;;5037976;28;20032;-78
2023/05/31 00:03:16;;;;;;;4.18;0.52;;;10.90;99.90;;;;;;5054949;28;20029;-78
2023/05/31 00:05:41;;;;;;;3.83;0.95;;;10.90;99.90;;;;;;5037411;28;20488;-78
2023/05/31 00:08:07;;;;;;;3.22;0.40;;;10.80;99.90;;;;;;5036958;28;20488;-78
2023/05/31 00:10:32;;;;;;;1.50;0.40;;;10.80;99.90;;;;;;5055065;28;20029;-78
2023/05/31 00:12:58;;;;;;;3.42;0.73;;;10.70;99.90;;;;;;5055415;28;20021;-78
2023/05/31 00:15:24;;;;;;;3.97;0.93;;;10.80;99.90;;;;;;5037425;28;20100;-78
2023/05/31 00:17:50;;;;;;;5.70;0.90;;;10.80;99.90;;;;;;5000519;28;1075900;-78
2023/05/31 00:20:15;;;;;;;5.22;0.70;;;10.70;99.90;;;;;;5038452;28;20021;-78
2023/05/31 00:22:41;;;;;;;2.25;0.57;;;10.70;99.90;;;;;;5056601;28;20032;-78
2023/05/31 00:25:07;;;;;;;3.05;0.82;;;10.70;99.90;;;;;;5038311;28;20512;-78
2023/05/31 00:27:32;;;;;;;3.45;1.10;;;10.70;99.90;;;;;;5056187;28;20079;-78
2023/05/31 00:29:58;;;;;;;3.17;0.40;;;10.70;99.90;;;;;;5038038;28;20021;-78
2023/05/31 00:32:23;;;;;;;3.60;0.80;;;10.60;99.90;;;;;;5056678;28;20112;-78
2023/05/31 00:34:49;;;;;;;3.88;0.77;;;11.30;99.90;;;;;;5038529;28;20021;-78
2023/05/31 00:37:15;;;;;;;3.28;0.75;;;10.60;99.90;;;;;;5039184;28;20029;-78
2023/05/31 00:39:40;;;;;;;3.13;1.27;;;10.60;99.90;;;;;;5056598;28;20116;-78
2023/05/31 00:42:07;;;;;;;4.03;0.85;;;10.60;99.90;;;;;;5056651;28;20017;-77
2023/05/31 00:44:32;;;;;;;4.25;0.98;;;10.60;99.90;;;;;;5037296;28;20032;-78
2023/05/31 00:46:58;;;;;;;3.33;0.70;;;10.60;99.90;;;;;;5059246;28;20017;-78
2023/05/31 00:49:26;;;;;;;4.25;0.80;;;10.60;99.90;;;;;;5059608;28;20025;-78
2023/05/31 00:51:52;;;;;;;4.25;0.77;;;10.60;99.90;;;;;;5041378;28;20025;-78
2023/05/31 00:54:18;;;;;;;5.82;1.00;;;10.60;99.90;;;;;;5058571;28;20391;-78
2023/05/31 00:56:44;;;;;;;2.42;0.50;;;10.60;99.90;;;;;;5041479;28;20119;-78
2023/05/31 00:59:10;;;;;;;3.58;0.82;;;10.60;99.90;;;;;;5059229;28;20017;-78
2023/05/31 01:01:36;;;;;;;3.03;1.05;;;10.50;99.90;;;;;;5059122;28;20582;-79
2023/05/31 01:04:02;;;;;;;3.10;1.05;;;10.60;99.90;;;;;;5059865;28;20029;-79
2023/05/31 01:06:32;;;;;;;4.15;0.93;;;10.60;99.90;;;;;;5058820;28;20032;-78
2023/05/31 01:08:59;;;;;;;3.38;0.95;;;10.60;99.90;;;;;;5058817;28;20043;-78
2023/05/31 01:11:44;;;;;;;3.60;1.52;;;10.60;99.90;;;;;;5041630;28;20045;-78
2023/05/31 01:14:47;;;;;;;3.60;1.30;;;11.40;99.90;;;;;;5058846;28;20025;-78
2023/05/31 01:17:22;;;;;;;5.28;1.65;;;10.50;99.90;;;;;;5004336;28;20037;-78
2023/05/31 01:19:56;;;;;;;3.17;0.70;;;10.50;99.90;;;;;;5040424;28;20554;-78
2023/05/31 01:23:01;;;;;;;5.60;1.05;;;10.40;99.90;;;;;;5058709;28;20024;-78
2023/05/31 01:25:45;;;;;;;2.70;0.77;;;10.40;99.90;;;;;;5057853;28;20392;-78
2023/05/31 01:28:14;;;;;;;5.85;1.15;;;10.30;99.90;;;;;;5039488;28;20025;-78
2023/05/31 01:30:39;;;;;;;3.13;1.13;;;10.20;99.90;;;;;;5059137;28;20043;-78
2023/05/31 01:33:12;;;;;;;3.13;0.82;;;10.20;99.90;;;;;;5058705;28;20021;-78
2023/05/31 01:35:38;;;;;;;3.30;1.10;;;10.20;99.90;;;;;;5057574;28;20025;-77
2023/05/31 01:38:03;;;;;;;2.35;1.17;;;10.10;99.90;;;;;;5059237;28;20036;-79
2023/05/31 01:40:31;;;;;;;4.47;1.13;;;10.10;99.90;;;;;;5039769;28;20071;-77
2023/05/31 01:42:57;;;;;;;4.55;1.10;;;10.10;99.90;;;;;;5057564;28;20090;-78
2023/05/31 01:45:24;;;;;;;7.82;1.60;;;10.10;99.90;;;;;;5057448;28;20029;-77
2023/05/31 01:47:54;;;;;;;5.47;1.33;;;10.10;99.90;;;;;;5039607;28;20108;-77
2023/05/31 01:50:20;;;;;;;3.97;1.08;;;10.10;99.90;;;;;;5039855;28;20051;-78
2023/05/31 01:52:46;;;;;;;5.28;1.05;;;10.10;99.90;;;;;;5057885;28;20025;-78
2023/05/31 01:55:12;;;;;;;2.90;0.52;;;10.00;99.90;;;;;;5057886;28;20105;-78
2023/05/31 01:57:40;;;;;;;3.90;1.33;;;9.90;99.90;;;;;;5058151;28;20481;-78
2023/05/31 02:00:11;;;;;;;3.35;1.30;;;9.90;99.90;;;;;;5039780;28;20028;-78
2023/05/31 02:02:41;;;;;;;3.00;0.80;;;9.80;99.90;;;;;;5040062;28;20025;-78
2023/05/31 02:05:11;;;;;;;3.95;1.00;;;9.80;99.90;;;;;;5039756;28;20036;-78
2023/05/31 02:07:43;;;;;;;3.22;1.48;;;9.80;99.90;;;;;;5040038;28;20029;-78
2023/05/31 02:10:10;;;;;;;3.42;0.65;;;9.80;99.90;;;;;;5057388;28;20025;-78
2023/05/31 02:12:36;;;;;;;5.07;0.85;;;9.80;99.90;;;;;;5057365;28;20025;-78
2023/05/31 02:15:02;;;;;;;1.95;0.68;;;9.80;99.90;;;;;;5039482;28;20016;-78
2023/05/31 02:17:28;;;;;;;2.90;0.63;;;9.70;99.90;;;;;;5039892;28;20021;-78
2023/05/31 02:19:54;;;;;;;2.17;0.98;;;9.60;99.90;;;;;;5057641;28;20028;-79
2023/05/31 02:22:21;;;;;;;5.25;1.73;;;9.60;99.90;;;;;;5057011;28;20025;-77
2023/05/31 02:24:46;;;;;;;7.20;1.15;;;9.60;99.90;;;;;;5056554;28;20056;-77
2023/05/31 02:27:13;;;;;;;4.07;1.35;;;9.50;99.90;;;;;;5038622;28;20495;-78
2023/05/31 02:29:38;;;;;;;3.47;1.60;;;9.50;99.90;;;;;;5038713;28;20116;-78
2023/05/31 02:32:04;;;;;;;3.80;0.98;;;9.50;99.90;;;;;;5056402;28;20118;-78
2023/05/31 02:34:30;;;;;;;5.15;1.40;;;9.50;99.90;;;;;;5056114;28;20025;-77
2023/05/31 02:36:56;;;;;;;4.90;1.13;;;;;;;;;;5038332;28;20051;-77
2023/05/31 02:39:22;;;;;;;2.83;0.57;;;9.50;99.90;;;;;;5056511;28;20503;-78
2023/05/31 02:41:47;;;;;;;4.50;1.33;;;9.50;99.90;;;;;;5056319;28;20081;-77
2023/05/31 02:44:13;;;;;;;4.25;1.20;;;9.50;99.90;;;;;;5056274;28;20029;-78
2023/05/31 02:46:39;;;;;;;1.77;0.63;;;9.40;99.90;;;;;;5055224;28;20047;-78
2023/05/31 02:49:06;;;;;;;4.25;0.88;;;9.80;99.90;;;;;;5055267;28;20551;-78
2023/05/31 02:51:32;;;;;;;4.90;1.48;;;9.40;99.90;;;;;;5056004;28;20055;-78
2023/05/31 02:53:58;;;;;;;3.00;1.10;;;9.40;99.90;;;;;;5055764;28;20053;-77
2023/05/31 02:56:24;;;;;;;3.75;1.00;;;9.40;99.90;;;;;;5056095;28;20017;-78
2023/05/31 02:58:50;;;;;;;5.22;1.05;;;9.40;99.90;;;;;;5055743;28;20100;-78
2023/05/31 03:01:16;;;;;;;5.68;1.85;;;9.50;99.90;;;;;;5037852;28;20024;-78
2023/05/31 03:03:41;;;;;;;6.28;1.20;;;9.50;99.90;;;;;;5055553;28;20504;-78
2023/05/31 03:06:07;;;;;;;3.75;1.70;;;10.50;99.90;;;;;;5037883;28;20033;-78
2023/05/31 03:08:32;;;;;;;5.78;1.77;;;9.40;99.90;;;;;;5037185;28;20025;-78
2023/05/31 03:10:58;;;;;;;4.15;1.30;;;9.40;99.90;;;;;;5037572;28;20040;-78
2023/05/31 03:13:24;;;;;;;4.65;0.90;;;10.20;99.90;;;;;;5054785;28;20065;-78
2023/05/31 03:15:49;;;;;;;3.45;1.17;;;9.30;99.90;;;;;;5037433;28;20499;-78
2023/05/31 03:18:15;;;;;;;4.95;1.45;;;9.30;99.90;;;;;;5055068;28;20127;-78
2023/05/31 03:20:41;;;;;;;3.40;0.80;;;9.30;99.90;;;;;;5037135;28;20040;-77
2023/05/31 03:23:07;;;;;;;3.10;1.15;;;9.20;99.90;;;;;;5037407;28;20546;-77
2023/05/31 03:25:33;;;;;;;4.05;1.35;;;9.20;99.90;;;;;;5037560;28;20066;-77
2023/05/31 03:27:58;;;;;;;5.10;1.80;;;9.20;99.90;;;;;;5037336;28;20028;-77
2023/05/31 03:30:24;;;;;;;4.63;1.40;;;9.20;99.90;;;;;;5054872;28;20033;-77
2023/05/31 03:32:50;;;;;;;4.13;1.20;;;9.10;99.90;;;;;;5037341;28;20419;-77
2023/05/31 03:35:16;;;;;;;8.57;1.88;;;9.20;99.90;;;;;;5036920;28;20074;-77
2023/05/31 03:37:42;;;;;;;6.72;1.75;;;9.10;99.90;;;;;;5037228;28;20013;-76
2023/05/31 03:40:08;;;;;;;2.78;1.10;;;9.10;99.90;;;;;;5037306;28;20040;-77
2023/05/31 03:42:34;;;;;;;5.65;1.98;;;9.10;99.90;;;;;;5036710;28;20025;-77
2023/05/31 03:45:00;;;;;;;7.53;1.67;;;9.80;99.90;;;;;;5055148;28;20021;-77
2023/05/31 03:47:26;;;;;;;4.53;1.67;;;8.80;99.90;;;;;;5037167;28;20029;-77
2023/05/31 03:49:52;;;;;;;3.40;0.98;;;9.00;99.90;;;;;;5054410;28;20032;-77
2023/05/31 03:52:17;;;;;;;4.40;1.30;;;9.00;99.90;;;;;;5054686;28;20096;-77
2023/05/31 03:54:43;;;;;;;4.80;1.27;;;8.90;99.90;;;;;;5054306;28;20082;-77
2023/05/31 03:57:09;;;;;;;5.82;1.70;;;9.00;99.90;;;;;;5036412;28;20013;-77
2023/05/31 03:59:35;;;;;;;4.53;1.02;;;9.00;99.90;;;;;;5054691;28;20412;-77
2023/05/31 04:02:01;;;;;;;6.70;1.48;;;8.90;99.90;;;;;;5054800;28;20453;-77
2023/05/31 04:04:27;;;;;;;4.03;1.13;;;9.00;99.90;;;;;;5054304;28;20028;-77
2023/05/31 04:06:53;;;;;;;4.07;1.58;;;9.10;99.90;;;;;;5036822;28;20024;-77
2023/05/31 04:09:19;;;;;;;5.47;1.85;;;;;;;;;;5036367;28;20452;-77
2023/05/31 04:11:45;;;;;;;5.80;1.52;;;9.10;99.90;;;;;;5036890;28;20029;-77
2023/05/31 04:14:12;;;;;;;7.63;1.73;;;9.10;99.90;;;;;;5054623;28;20549;-77
2023/05/31 04:16:37;;;;;;;5.80;2.05;;;9.20;99.90;;;;;;5054024;28;20025;-77
2023/05/31 04:19:03;;;;;;;6.20;2.22;;;9.30;99.90;;;;;;5036683;28;20033;-77
2023/05/31 04:21:28;;;;;;;6.07;1.95;;;9.40;99.90;;;;;;5053906;28;20028;-77
2023/05/31 04:23:54;;;;;;;8.07;1.90;;;9.50;99.90;;;;;;5054397;28;20025;-77
2023/05/31 04:26:20;;;;;;;6.57;1.63;;;9.50;99.90;;;;;;5054276;28;20032;-77
2023/05/31 04:28:51;;;;;;;5.40;1.98;;;9.60;99.90;;;;;;5053826;28;20075;-77
2023/05/31 04:31:17;;;;;;;17.42;2.28;;;9.70;99.90;;;;;;5036165;28;20043;-77
2023/05/31 04:33:44;;;;;;;6.20;1.85;;;9.80;99.90;;;;;;5054119;28;20021;-77
2023/05/31 04:36:10;;;;;;;9.55;1.77;;;9.90;99.90;;;;;;5054238;28;20018;-77
2023/05/31 04:38:35;;;;;;;5.55;1.92;;;10.00;99.90;;;;;;5054459;28;20025;-77
2023/05/31 04:41:03;;;;;;;6.22;2.22;;;10.00;99.90;;;;;;5054455;28;20094;-77
2023/05/31 04:43:28;;;;;;;8.93;2.50;;;10.50;99.90;;;;;;5036283;28;20028;-77
2023/05/31 04:45:55;;;;;;;9.30;2.13;;;10.30;99.90;;;;;;5035958;28;20480;-77
2023/05/31 04:48:21;;;;;;;6.72;2.58;;;10.30;99.90;;;;;;5054165;28;20028;-77
2023/05/31 04:50:48;;;;;;;7.57;2.28;;;10.40;99.90;;;;;;5035882;28;20067;-77
2023/05/31 04:53:14;;;;;;;5.20;1.75;;;10.40;99.90;;;;;;5037390;28;20033;-78
2023/05/31 04:55:40;;;;;;;12.43;2.80;;;10.60;99.90;;;;;;5037581;28;20400;-78
2023/05/31 04:58:07;;;;;;;7.25;2.25;;;10.70;99.90;;;;;;5036968;28;20358;-79
2023/05/31 05:00:34;;;;;;;7.45;2.35;;;10.70;99.90;;;;;;5037515;28;20083;-77
2023/05/31 05:03:00;;;;;;;12.77;2.67;;;10.80;99.90;;;;;;5036961;28;20029;-78
2023/05/31 05:05:26;;;;;;;8.45;2.83;;;10.90;99.90;;;;;;5036938;28;20025;-78
2023/05/31 05:07:52;;;;;;;9.65;2.40;;;11.00;99.90;;;;;;5036739;28;20052;-78
2023/05/31 05:10:17;;;;;;;7.10;2.38;;;11.10;99.90;;;;;;5036639;28;20116;-78
2023/05/31 05:12:43;;;;;;;4.78;2.35;;;11.20;99.90;;;;;;5036992;28;20074;-80
2023/05/31 05:15:09;;;;;;;9.25;2.40;;;11.90;99.90;;;;;;5036182;28;20033;-79
2023/05/31 05:17:36;;;;;;;8.27;2.30;;;11.30;99.90;;;;;;5054207;28;20552;-79
2023/05/31 05:20:10;;;;;;;6.00;2.17;;;11.40;99.90;;;;;;5053669;28;20025;-77
2023/05/31 05:22:35;;;;;;;7.57;2.53;;;11.50;99.90;;;;;;5054671;28;20032;-77
2023/05/31 05:25:01;;;;;;;7.47;2.75;;;11.60;99.90;;;;;;5037197;28;20025;-78
2023/05/31 05:27:26;;;;;;;9.65;2.53;;;11.70;99.90;;;;;;5037643;28;20021;-78
2023/05/31 05:29:52;;;;;;;8.93;2.97;;;11.80;99.90;;;;;;5037498;28;20027;-79
2023/05/31 05:32:18;;;;;;;8.77;2.60;;;11.80;99.90;;;;;;5056674;28;20024;-77
2023/05/31 05:34:43;;;;;;;6.55;2.10;;;11.80;99.90;;;;;;5039930;28;20024;-77
2023/05/31 05:37:09;;;;;;;5.85;2.22;;;11.90;99.90;;;;;;5056788;28;20021;-77
2023/05/31 05:39:35;;;;;;;7.28;2.53;;;12.00;99.90;;;;;;5039095;28;20561;-77
2023/05/31 05:42:01;;;;;;;6.03;2.10;;;12.00;99.90;;;;;;5056868;28;20544;-77
2023/05/31 05:44:26;;;;;;;6.45;2.17;;;12.20;99.90;;;;;;5057582;28;20033;-77
2023/05/31 05:46:52;;;;;;;8.23;2.17;;;12.20;99.90;;;;;;5056837;28;20032;-77
2023/05/31 05:49:18;;;;;;;9.55;2.88;;;12.40;99.90;;;;;;5056674;28;20024;-78
2023/05/31 05:51:43;;;;;;;5.53;2.40;;;12.50;99.90;;;;;;5059686;28;20493;-80
2023/05/31 05:54:09;;;;;;;10.88;2.85;;;12.70;99.90;;;;;;5041250;28;20027;-79
2023/05/31 05:56:37;;;;;;;10.48;2.33;;;12.70;99.90;;;;;;5039832;28;20056;-78
2023/05/31 05:59:02;;;;;;;8.60;2.90;;;12.70;99.90;;;;;;5039955;28;20025;-78
2023/05/31 06:01:28;;;;;;;9.45;3.05;;;12.90;99.90;;;;;;5057199;28;20043;-78
2023/05/31 06:03:55;;;;;;;7.85;1.90;;;12.90;99.90;;;;;;5039436;28;20032;-77
2023/05/31 06:06:20;;;;;;;8.10;2.60;;;13.10;99.90;;;;;;5039490;28;20021;-78
2023/05/31 06:08:46;;;;;;;7.38;2.80;;;13.20;99.90;;;;;;5057565;28;20494;-78
2023/05/31 06:11:15;;;;;;;8.77;2.67;;;13.50;99.90;;;;;;5039130;28;20028;-78
2023/05/31 06:13:42;;;;;;;8.88;2.15;;;13.40;99.90;;;;;;5039508;28;20518;-78
2023/05/31 06:16:08;;;;;;;9.48;2.88;;;13.50;99.90;;;;;;5057640;28;20488;-78
2023/05/31 06:18:34;;;;;;;13.73;3.22;;;13.70;99.90;;;;;;5055724;28;20032;-78
2023/05/31 06:21:00;;;;;;;11.07;2.53;;;13.70;99.90;;;;;;5037108;28;20025;-78
2023/05/31 06:23:26;;;;;;;10.95;3.53;;;13.90;99.90;;;;;;5056838;28;20124;-79
2023/05/31 06:25:52;;;;;;;10.00;2.60;;;13.90;99.90;;;;;;5039842;28;20159;-78
2023/05/31 06:28:18;;;;;;;7.45;2.65;;;14.10;99.90;;;;;;5058544;28;20063;-78
2023/05/31 06:30:43;;;;;;;7.68;2.35;;;14.10;99.90;;;;;;5038472;28;20021;-78
2023/05/31 06:33:09;;;;;;;18.00;3.75;;;14.30;99.90;;;;;;5040354;28;20044;-78
2023/05/31 06:35:35;;;;;;;5.85;2.55;;;15.00;99.90;;;;;;5058035;28;20480;-79
2023/05/31 06:38:03;;;;;;;5.68;2.40;;;14.60;99.90;;;;;;5040122;28;20027;-79
2023/05/31 06:40:29;;;;;;;9.15;2.50;;;14.60;99.90;;;;;;5040225;28;20395;-78
2023/05/31 06:42:55;;;;;;;8.95;2.38;;;14.70;99.90;;;;;;5056783;28;20060;-78
2023/05/31 06:45:21;;;;;;;6.78;2.45;;;14.80;99.90;;;;;;5039904;28;20033;-78
2023/05/31 06:47:46;;;;;;;8.85;2.95;;;14.90;99.90;;;;;;5057684;28;20128;-78
2023/05/31 06:50:12;;;;;;;7.10;2.42;;;15.00;99.90;;;;;;5040118;28;20028;-79
2023/05/31 06:52:39;;;;;;;7.65;2.13;;;15.10;99.90;;;;;;5057306;28;20017;-79
2023/05/31 06:55:06;;;;;;;9.82;3.42;;;15.20;99.90;;;;;;5057963;28;20044;-78
2023/05/31 06:57:31;;;;;;;7.72;1.90;;;15.30;99.90;;;;;;5057775;28;20519;-78
2023/05/31 06:59:57;;;;;;;6.43;2.13;;;15.40;99.90;;;;;;5057600;28;20025;-79
2023/05/31 07:02:23;;;;;;;6.88;2.33;;;15.90;99.90;;;;;;5057437;28;20021;-78
2023/05/31 07:04:49;;;;;;;5.95;2.10;;;15.60;99.90;;;;;;5057253;28;20025;-78
2023/05/31 07:07:15;;;;;;;5.85;2.92;;;15.70;99.90;;;;;;5039689;28;20578;-78
2023/05/31 07:09:41;;;;;;;8.57;2.17;;;15.80;99.90;;;;;;5040340;28;20108;-79
2023/05/31 07:12:06;;;;;;;6.78;2.08;;;16.40;99.90;;;;;;5056834;28;20032;-79
2023/05/31 07:14:32;;;;;;;6.95;1.98;;;16.00;99.90;;;;;;5056879;28;20021;-79
2023/05/31 07:16:58;;;;;;;6.75;2.40;;;16.20;99.90;;;;;;5057473;28;20092;-79
2023/05/31 07:19:23;;;;;;;6.15;2.55;;;16.70;99.90;;;;;;5057153;28;20048;-78
2023/05/31 07:21:49;;;;;;;8.95;1.95;;;16.40;99.90;;;;;;5056892;28;20477;-79
2023/05/31 07:24:15;;;;;;;6.60;1.65;;;16.40;99.90;;;;;;5056840;28;20021;-78
2023/05/31 07:26:40;;;;;;;5.82;1.40;;;16.50;99.90;;;;;;5038809;28;20031;-78
2023/05/31 07:29:06;;;;;;;6.57;1.50;;;16.60;99.90;;;;;;5038773;28;20415;-78
2023/05/31 07:31:31;;;;;;;6.13;1.98;;;16.70;99.90;;;;;;5056451;28;20071;-78
2023/05/31 07:33:57;;;;;;;14.85;2.65;;;16.80;99.90;;;;;;5038943;28;20028;-78
2023/05/31 07:36:26;;;;;;;6.97;1.90;;;17.00;99.90;;;;;;5038863;28;20025;-79
2023/05/31 07:38:52;;;;;;;9.52;1.70;;;17.00;99.90;;;;;;5039149;28;20029;-78
2023/05/31 07:41:18;;;;;;;8.48;1.95;;;17.70;99.90;;;;;;5056961;28;20079;-78
2023/05/31 07:43:45;;;;;;;6.40;1.60;;;17.20;99.90;;;;;;5056576;28;20103;-79
2023/05/31 07:46:11;;;;;;;7.28;2.17;;;17.90;99.90;;;;;;5056520;28;20047;-79
2023/05/31 07:48:36;;;;;;;4.70;1.75;;;17.40;99.90;;;;;;5038862;28;20484;-79
2023/05/31 07:51:02;;;;;;;8.70;2.15;;;18.50;99.90;;;;;;5039274;28;20024;-79
2023/05/31 07:53:28;;;;;;;4.95;1.63;;;17.60;99.90;;;;;;5056657;28;20032;-79
2023/05/31 07:55:53;;;;;;;5.60;1.48;;;17.80;99.90;;;;;;5038950;28;20476;-79
2023/05/31 07:58:19;;;;;;;5.95;1.73;;;17.90;99.90;;;;;;5056842;28;20027;-79
2023/05/31 08:00:46;;;;;;;11.23;2.05;;;18.00;99.90;;;;;;5056906;28;20045;-79
2023/05/31 08:03:11;;;;;;;5.45;1.38;;;18.00;99.90;;;;;;5057742;28;20484;-78
2023/05/31 08:05:37;;;;;;;5.97;1.63;;;18.10;99.90;;;;;;5057038;28;20040;-79
2023/05/31 08:08:03;;;;;;;6.10;1.52;;;18.40;99.90;;;;;;5039305;28;20051;-79
2023/05/31 08:10:29;;;;;;;6.50;1.40;;;18.40;99.90;;;;;;5057095;28;20013;-78
2023/05/31 08:12:55;;;;;;;2.92;1.70;;;19.50;99.90;;;;;;5039362;28;20040;-79
2023/05/31 08:15:21;;;;;;;5.90;1.73;;;18.60;99.90;;;;;;5057150;28;20021;-79
2023/05/31 08:17:47;;;;;;;4.57;1.08;;;18.70;99.90;;;;;;5056652;28;20079;-79
2023/05/31 08:20:15;;;;;;;3.72;1.20;;;18.80;99.90;;;;;;5038676;28;20053;-79
2023/05/31 08:22:44;;;;;;;8.98;2.40;;;18.90;99.90;;;;;;5057083;28;20017;-79
2023/05/31 08:25:14;;;;;;;;;;;18.80;99.90;;;;;;5057781;28;20084;-79
2023/05/31 08:27:40;;;;;;;7.28;1.70;;;18.90;99.90;;;;;;5057282;28;19904;-79
2023/05/31 08:30:09;;;;;;;7.35;1.75;;;19.00;99.90;;;;;;5057692;28;20021;-78
2023/05/31 08:32:35;;;;;;;5.82;1.50;;;19.00;99.90;;;;;;5057193;28;20494;-78
2023/05/31 08:35:01;;;;;;;7.57;1.40;;;19.10;99.90;;;;;;5039183;28;20017;-79
2023/05/31 08:37:26;;;;;;;4.22;1.35;;;19.30;99.90;;;;;;5039421;28;20039;-79
2023/05/31 08:39:52;;;;;;;6.63;1.48;;;19.40;99.90;;;;;;5039011;28;20029;-78
2023/05/31 08:42:24;;;;;;;4.47;1.38;;;19.30;99.90;;;;;;5057106;28;20029;-79
2023/05/31 08:44:51;;;;;;;7.78;1.02;;;19.30;99.90;;;;;;5057080;28;20047;-79
2023/05/31 08:47:22;;;;;;;5.53;1.38;;;19.50;99.90;;;;;;5057142;28;20025;-79
2023/05/31 08:49:49;;;;;;;5.20;1.63;;;19.60;99.90;;;;;;5056746;28;20044;-79
2023/05/31 08:52:16;;;;;;;6.50;1.60;;;19.70;99.90;;;;;;5056544;28;20025;-79
2023/05/31 08:54:43;;;;;;;7.75;1.50;;;19.80;99.90;;;;;;5056756;28;20092;-78
2023/05/31 08:57:11;;;;;;;4.57;1.50;;;19.80;99.90;;;;;;5038953;28;20017;-78
2023/05/31 08:59:37;;;;;;;4.65;1.10;;;19.90;99.90;;;;;;5055921;28;20025;-78
2023/05/31 09:02:03;;;;;;;5.75;1.23;;;20.10;99.90;;;;;;5056624;28;20060;-79
2023/05/31 09:04:29;;;;;;;9.13;1.80;;;20.30;99.90;;;;;;5056562;28;20092;-79
2023/05/31 09:06:55;;;;;;;1.83;1.10;;;20.40;99.90;;;;;;5057393;28;20456;-79
2023/05/31 09:09:20;;;;;;;3.17;1.02;;;20.60;99.90;;;;;;5060332;28;20085;-79
2023/05/31 09:11:46;;;;;;;5.80;1.00;;;20.70;99.90;;;;;;5042568;28;20057;-79
2023/05/31 09:14:12;;;;;;;4.80;0.88;;;20.90;99.90;;;;;;5042195;28;20029;-78
2023/05/31 09:16:38;;;;;;;4.38;0.85;;;20.90;99.90;;;;;;5042176;28;20017;-79
2023/05/31 09:19:05;;;;;;;3.90;1.25;;;20.90;99.90;;;;;;5041897;28;20404;-79
2023/05/31 09:21:42;;;;;;;4.97;1.15;;;20.90;99.90;;;;;;5041884;28;20036;-79
2023/05/31 09:24:08;;;;;;;1.63;0.60;;;21.10;99.90;;;;;;5059664;28;20025;-79
2023/05/31 09:26:34;;;;;;;5.63;0.70;;;21.20;99.90;;;;;;5059668;28;20029;-79
2023/05/31 09:29:00;;;;;;;6.03;1.30;;;21.30;99.90;;;;;;5060350;28;20029;-79
2023/05/31 09:31:27;;;;;;;3.85;1.45;;;21.40;99.90;;;;;;5041603;28;20032;-79
2023/05/31 09:33:54;;;;;;;4.95;1.42;;;21.40;99.90;;;;;;5059016;28;20024;-79
2023/05/31 09:36:27;;;;;;;5.38;1.65;;;21.60;99.90;;;;;;5059651;28;20013;-79
2023/05/31 09:39:04;;;;;;;8.52;1.63;;;21.70;99.90;;;;;;5041584;28;20119;-79
2023/05/31 09:41:31;;;;;;;4.00;0.60;;;21.80;99.90;;;;;;5059276;28;20096;-79
2023/05/31 09:43:56;;;;;;;4.65;0.55;;;21.90;99.90;;;;;;5058858;28;20036;-79
2023/05/31 09:46:23;;;;;;;4.78;0.80;;;22.10;99.90;;;;;;5058522;28;20021;-79
2023/05/31 09:49:03;;;;;;;3.85;1.33;;;22.30;99.90;;;;;;5040544;28;20021;-79
2023/05/31 09:51:30;;;;;;;8.77;1.42;;;22.30;99.90;;;;;;5058135;28;20025;-79
2023/05/31 09:53:56;;;;;;;7.00;1.30;;;22.40;99.90;;;;;;5040459;28;20021;-79
2023/05/31 09:56:23;;;;;;;4.50;1.10;;;22.50;99.80;;;;;;5058570;28;20446;-79
2023/05/31 09:58:49;;;;;;;3.55;1.50;;;22.60;99.20;;;;;;5058362;28;20025;-78
2023/05/31 10:01:16;;;;;;;6.53;0.90;;;22.80;98.80;;;;;;5040115;28;20098;-79
2023/05/31 10:03:43;;;;;;;4.72;0.90;;;22.90;98.30;;;;;;5058298;28;20057;-79
2023/05/31 10:06:11;;;;;;;7.57;1.40;;;22.90;97.50;;;;;;5058298;28;20466;-79
2023/05/31 10:08:37;;;;;;;2.70;0.88;;;22.90;98.50;;;;;;5058416;28;20039;-79
2023/05/31 10:11:03;;;;;;;2.22;0.65;;;22.90;98.00;;;;;;5040085;28;20108;-79
2023/05/31 10:13:31;;;;;;;5.82;0.93;;;23.00;97.70;;;;;;5040066;28;20049;-79
2023/05/31 10:16:03;;;;;;;2.92;0.90;;;22.90;97.50;;;;;;5058008;28;20025;-79
2023/05/31 10:18:33;;;;;;;6.43;1.42;;;23.00;97.80;;;;;;5039524;28;20033;-79
2023/05/31 10:21:06;;;;;;;4.88;0.70;;;23.20;98.00;;;;;;5040575;28;20025;-79
2023/05/31 10:23:41;;;;;;;4.43;1.20;;;23.40;95.50;;;;;;5058183;28;20024;-79
2023/05/31 10:26:17;;;;;;;4.07;1.13;;;23.40;95.80;;;;;;5040466;28;20021;-79
2023/05/31 10:29:32;;;;;;;5.47;1.42;;;23.50;95.90;;;;;;5058314;28;20021;-79
2023/05/31 10:32:06;;;;;;;3.67;0.88;;;23.70;96.10;;;;;;5044605;28;20407;-79
2023/05/31 10:34:33;;;;;;;4.70;0.98;;;23.90;95.10;;;;;;5058021;28;20021;-79
2023/05/31 10:36:58;;;;;;;5.20;0.82;;;24.10;94.30;;;;;;5058006;28;20029;-79
2023/05/31 10:39:27;;;;;;;5.90;1.15;;;24.20;94.40;;;;;;5058137;28;20431;-79
2023/05/31 10:42:02;;;;;;;;;;;24.30;94.10;;;;;;5057814;28;20028;-79
2023/05/31 10:44:36;;;;;;;4.43;1.42;;;24.30;93.70;;;;;;5040067;28;19904;-79
2023/05/31 10:47:05;;;;;;;6.07;0.80;;;24.30;93.60;;;;;;5039365;28;20028;-79
2023/05/31 10:49:33;;;;;;;3.85;0.80;;;24.20;94.60;;;;;;5040179;28;20010;-79
2023/05/31 10:52:08;;;;;;;4.30;0.80;;;24.40;93.70;;;;;;5039689;28;20083;-79
2023/05/31 10:54:33;;;;;;;4.88;1.67;;;24.60;92.10;;;;;;5057100;28;20550;-79
2023/05/31 10:57:03;;;;;;;3.95;0.80;;;24.60;92.20;;;;;;5057724;28;20049;-79
2023/05/31 10:59:38;;;;;;;3.25;1.20;;;24.70;92.10;;;;;;5058300;28;20021;-79
2023/05/31 11:02:06;;;;;;;3.70;1.08;;;24.90;92.00;;;;;;5039426;28;20021;-79
2023/05/31 11:04:32;;;;;;;3.05;0.80;;;25.20;91.20;;;;;;5057853;28;20028;-79
2023/05/31 11:07:16;;;;;;;2.92;0.57;;;25.30;91.10;;;;;;5039619;28;20075;-79
2023/05/31 11:09:56;;;;;;;4.03;1.27;;;25.60;90.10;;;;;;5057588;28;20029;-79
2023/05/31 11:12:35;;;;;;;5.85;1.77;;;25.50;89.80;;;;;;5039540;28;20037;-79
2023/05/31 11:15:03;;;;;;;8.00;1.10;;;25.60;89.20;;;;;;5057278;28;20044;-79
2023/05/31 11:17:29;;;;;;;2.90;1.13;;;25.80;89.70;;;;;;5056714;28;20017;-79
2023/05/31 11:19:55;;;;;;;4.15;0.80;;;25.90;88.00;;;;;;5038985;28;20053;-79
2023/05/31 11:22:27;;;;;;;3.50;0.75;;;25.90;87.00;;;;;;5057188;28;20079;-79
2023/05/31 11:24:55;;;;;;;2.63;0.70;;;25.90;86.30;;;;;;5056959;28;20048;-79
2023/05/31 11:27:38;;;;;;;4.10;0.73;;;26.00;86.80;;;;;;5039603;28;20013;-79
2023/05/31 11:30:12;;;;;;;4.78;1.27;;;26.10;84.50;;;;;;5056562;28;20328;-79
2023/05/31 11:32:38;;;;;;;6.40;0.50;;;26.20;85.10;;;;;;5057534;28;20032;-79
2023/05/31 11:35:06;;;;;;;6.00;1.08;;;26.30;83.60;;;;;;5039019;28;20389;-79
2023/05/31 11:37:37;;;;;;;3.10;0.45;;;26.60;82.80;;;;;;5056674;28;20032;-79
2023/05/31 11:40:08;;;;;;;3.38;0.73;;;26.90;83.30;;;;;;5039256;28;20047;-79
2023/05/31 11:42:43;;;;;;;5.68;0.45;;;27.10;80.60;;;;;;5038649;28;20438;-79
2023/05/31 11:45:17;;;;;;;4.93;0.65;;;27.30;81.50;;;;;;5057669;28;20048;-79
2023/05/31 11:48:09;;;;;;;2.95;0.60;;;27.70;78.80;;;;;;5057067;28;20017;-79
2023/05/31 11:50:35;;;;;;;3.47;0.50;;;27.90;77.70;;;;;;5026220;28;20037;-79
2023/05/31 11:53:06;;;;;;;6.53;1.30;;;28.00;77.00;;;;;;5056844;28;20031;-79
2023/05/31 11:55:35;;;;;;;1.90;0.40;;;28.30;75.80;;;;;;5038958;28;20027;-79
2023/05/31 11:58:01;;;;;;;1.98;0.47;;;28.20;71.90;;;;;;5038639;28;20104;-79
2023/05/31 12:00:28;;;;;;;2.50;0.50;;;28.20;72.60;;;;;;5038409;28;20035;-79
2023/05/31 12:03:04;;;;;;;3.83;0.75;;;28.10;74.50;;;;;;5056681;28;20021;-79
2023/05/31 12:05:30;;;;;;;3.22;0.43;;;28.00;75.00;;;;;;5056191;28;20392;-79
2023/05/31 12:07:56;;;;;;;4.53;0.68;;;28.10;76.40;;;;;;5056798;28;20029;-79
2023/05/31 12:10:30;;;;;;;1.60;0.40;;;27.90;74.30;;;;;;5056239;28;20039;-79
2023/05/31 12:12:58;;;;;;;9.73;0.75;;;27.90;72.30;;;;;;5056278;28;20056;-79
2023/05/31 12:15:23;;;;;;;4.75;0.82;;;28.20;73.20;;;;;;5056766;28;20032;-79
2023/05/31 12:17:49;;;;;;;3.65;0.50;;;28.50;71.20;;;;;;5038313;28;20419;-79
2023/05/31 12:20:15;;;;;;;4.50;0.82;;;28.50;72.50;;;;;;5038480;28;20032;-79
2023/05/31 12:22:40;;;;;;;4.90;0.85;;;28.40;72.00;;;;;;5038206;28;20021;-79
2023/05/31 12:25:06;;;;;;;3.65;0.65;;;28.20;71.70;;;;;;5056211;28;20017;-79
2023/05/31 12:27:33;;;;;;;3.40;0.52;;;28.20;72.50;;;;;;5036194;28;20430;-76
2023/05/31 12:30:05;;;;;;;2.47;1.00;;;28.40;70.80;;;;;;5052945;28;20021;-76
2023/05/31 12:32:31;;;;;;;2.72;0.68;;;28.40;70.70;;;;;;5053256;28;20025;-76
2023/05/31 12:35:04;;;;;;;4.97;0.95;;;28.60;70.00;;;;;;5035370;28;20074;-76
2023/05/31 12:37:34;;;;;;;3.05;0.65;;;28.50;69.00;;;;;;5035144;28;20074;-76
2023/05/31 12:40:11;;;;;;;6.65;1.65;;;28.70;69.60;;;;;;5052853;28;20048;-76
2023/05/31 12:42:37;;;;;;;2.53;0.43;;;29.00;69.70;;;;;;5056043;28;20021;-76
2023/05/31 12:45:04;;;;;;;6.95;0.52;;;28.80;68.20;;;;;;5039190;28;20074;-76
2023/05/31 12:47:30;;;;;;;5.23;0.77;;;28.80;69.10;;;;;;5056945;28;20415;-76
2023/05/31 12:50:05;;;;;;;4.10;1.00;;;28.80;68.40;;;;;;5039092;28;20052;-76
2023/05/31 12:52:33;;;;;;;1.55;0.47;;;29.20;68.50;;;;;;5057034;28;20036;-76